createdAt,value
2022-10-11T00:43:19.051Z,25.51
2022-10-11T01:03:19.312Z,25.51
2022-10-11T01:23:19.314Z,25.51
2022-10-11T01:43:19.294Z,25.51
2022-10-11T03:43:19.232Z,25.52
2022-10-11T04:03:19.227Z,25.52
2022-10-11T04:23:19.227Z,25.51
2022-10-11T05:43:18.929Z,25.52
2022-10-11T06:03:19.181Z,25.52
2022-10-11T06:23:19.182Z,25.51
2022-10-11T06:43:19.162Z,25.52
2022-10-11T07:03:19.155Z,25.52
2022-10-11T07:23:19.143Z,25.52
2022-10-11T07:43:19.121Z,25.52
2022-10-11T08:03:19.102Z,25.52
2022-10-11T08:23:19.070Z,25.53
2022-10-11T08:43:19.022Z,25.53
2022-10-11T09:03:19.012Z,25.53
2022-10-11T09:23:18.979Z,25.53
2022-10-11T09:43:18.955Z,25.52
2022-10-11T10:03:18.912Z,25.51
2022-10-11T10:23:18.880Z,25.5
2022-10-11T10:43:18.848Z,25.49
2022-10-11T11:03:18.822Z,25.47
2022-10-11T11:23:18.785Z,25.44
2022-10-11T11:43:18.756Z,25.41
2022-10-11T12:03:18.722Z,25.38
2022-10-11T12:23:20.005Z,25.36
2022-10-11T13:03:18.619Z,25.3
2022-10-11T13:23:18.586Z,25.26
2022-10-11T13:43:18.552Z,25.23
2022-10-11T14:03:18.547Z,25.22
2022-10-11T14:23:18.484Z,25.19
2022-10-11T14:43:18.465Z,25.15
2022-10-11T15:03:18.422Z,25.12
2022-10-11T15:23:18.389Z,25.09
2022-10-11T15:43:22.112Z,25.08
2022-10-11T16:03:18.327Z,25.07
2022-10-11T16:23:18.308Z,25.05
2022-10-11T16:43:18.259Z,25.03
2022-10-11T17:03:18.237Z,25.02
2022-10-11T17:23:18.226Z,25.01
2022-10-11T18:03:17.922Z,25
2022-10-11T18:43:18.158Z,24.99
2022-10-11T19:03:18.145Z,24.99
2022-10-11T19:23:17.855Z,24.99
2022-10-11T19:43:18.121Z,24.99
2022-10-11T20:03:18.098Z,24.99
2022-10-11T20:23:18.391Z,24.98
2022-10-11T20:43:18.111Z,24.98
2022-10-11T21:03:18.074Z,24.98
2022-10-11T21:23:17.785Z,24.98
2022-10-11T21:43:18.065Z,24.98
2022-10-11T22:03:18.061Z,24.98
2022-10-11T22:23:17.764Z,24.98
2022-10-11T23:43:18.050Z,24.98
